Logo AVAMET
Benvolgut visitant, si us plau, ingressa Recuperar contrasenya

Dénia Montgó

Dades diàries. Acumulats / Últims 30 dies disponibles

Data Temperatura (°C) Humitat rel. (%) Pressió rel. (hPa) Vent (km/h) Precipitació
Mínima Mitjana Màxima Amplitud
tèrmica
Mínima Mitjana Màxima Mínima Mitjana Màxima Predom. Mitjana Ràfega
màxima
Total
(mm)
Índex-n
Mínima Mitjana Màxima Mínima Mitjana Màxima n
0 a 1
P0 max
mm 5'
Dades mensuals acumulades fins l'últim dia disponible
12/2019 6,8 11,1 13,5 13,4 13,2 15,3 18,3 11,5 55 85 99 1.003 1.007 1.024   8,4 51,8 64,7
Dades anuals acumulades fins l'últim dia disponible
2019 5,9 16,2 26,8 19,2 9,9 22,4 38,7 32,8 10 66 99 993 1.015 1.034   9,9 72,2 795,4
Últims 30 dies disponibles
08-12-2019 11,9     14,5     18,3 6,4 56 72 87 1.020 1.022 1.024 S 5,4 22,2 0,0
07-12-2019 12,2     13,3     15,4 3,2 76 86 95 1.022 1.023 1.024 SE 2,5 11,1 0,0
06-12-2019 11,8     13,1     14,7 2,9 88 92 96 1.021 1.022 1.024 NO 4,5 27,8 0,0
05-12-2019 11,6     13,0     15,2 3,6 81 88 94 1.009 1.016 1.021 NNE 6,5 24,1 0,5
04-12-2019 10,4     11,9     14,1 3,7 83 91 99 1.003 1.006 1.009 NNE 10,7 51,8 41,5 0,47 6,10
03-12-2019 10,9     12,3     13,7 2,8 78 89 99 1.009 946 1.016 NE 17,1 48,1 22,7 0,22 0,80
02-12-2019 6,8     12,7     13,2 6,4 92 95 98 1.012 1.013 1.016 NE 15,6 37,0 0,34 1,00
01-12-2019 13,5     16,0     17,6 4,1 55 67 78 1.010 1.012 1.014 SSE 4,8 18,5 0,0
30-11-2019 15,6     18,0     20,5 4,9 54 64 73 1.014 1.018 1.020 S 6,5 27,8 0,0
29-11-2019 16,2     18,3     21,9 5,7 53 59 65 1.016 1.018 1.020 SO 11,1 37,0 0,0
28-11-2019 14,8     16,7     19,9 5,1 51 61 70 1.013 1.016 1.017 SO 10,3 50,0 0,0
27-11-2019 16,7     19,2     21,6 4,9 38 51 64 1.009 1.011 1.013 SO 17,0 51,8 0,0
26-11-2019 16,7     18,9     21,8 5,1 50 60 70 1.009 1.012 1.015 SSO 10,0 29,6 0,0
25-11-2019 13,7     17,2     19,6 5,9 53 61 68 1.012 1.013 1.015 OSO 13,9 46,3 0,0
24-11-2019 13,0     14,6     16,8 3,8 44 49 53 1.007 1.011 1.013 OSO 17,1 57,4 0,0
23-11-2019 12,7     15,4     17,7 5,0 45 63 81 994 999 1.007 OSO 21,0 62,9 0,0
22-11-2019 13,1     15,0     16,8 3,7 65 76 87 994 1.002 1.008 O 10,7 59,2 1,5
21-11-2019 9,6     13,8     16,1 6,5 62 75 88 1.008 1.009 1.010 S 8,1 31,4 0,3
20-11-2019 10,2     12,7     15,0 4,8 52 71 89 1.009 1.011 1.015 SSE 7,2 38,9 1,3
19-11-2019 8,0     11,6     14,1 6,1 46 57 68 1.014 1.016 1.017 S 10,6 35,1 0,0
18-11-2019 10,5     12,4     13,9 3,4 59 76 92 1.006 1.010 1.015 OSO 9,8 35,1 2,0
17-11-2019 10,0     13,4     17,1 7,1 42 62 82 1.009 1.012 1.014 OSO 12,6 44,4 0,8
16-11-2019 9,7     11,7     13,9 4,2 45 53 60 1.006 1.011 1.014 OSO 10,4 42,5 0,0
15-11-2019 10,4     12,3     14,8 4,4 42 51 60 1.001 1.003 1.006 SO 14,1 48,1 0,0
14-11-2019 12,1     14,8     17,4 5,3 41 63 84 1.000 1.003 1.010 SO 13,6 48,1 0,0
13-11-2019 13,2     15,8     19,7 6,5 45 66 86 1.005 1.008 1.011 SSO 12,7 46,3 4,6 0,15 0,30
12-11-2019 11,8     14,4     18,3 6,5 38 51 63 1.009 1.011 1.013 SO 11,3 42,5 0,0
11-11-2019 10,4     13,5     16,5 6,1 42 51 60 1.011 1.012 1.014 OSO 10,4 44,4 0,0
10-11-2019 11,3     13,8     16,0 4,7 42 55 67 1.010 1.012 1.013 O 15,9 55,5 0,0
09-11-2019 12,9     15,3     18,2 5,3 37 51 65 1.013 1.017 1.019 OSO 16,2 55,5 0,0
Últims 13 mesos disponibles
11/2019 8,0 13,7 22,1 16,2 13,9 18,9 26,3 18,3 47 58 76 999 1.011 1.018 OSO 13,2 62,9 10,5
10/2019 12,9 18,6 22,6 21,0 16,9 23,8 31,6 18,7 44 69 89 945 1.014 1.021 SE 8,5 53,6 85,4
09/2019 14,1 21,2 24,5 24,1 22,3 27,1 33,9 19,8 54 76 99 946 1.012 1.023 E 7,8 61,0 234,6
08/2019 19,7 23,7 26,3 26,8 25,7 30,7 37,0 17,3 59 69 84 951 1.013 1.019 SE 9,8 66,6 50,4
07/2019 22,4 23,7 26,8 26,8 27,4 30,5 38,7 16,3 50 68 86 1.006 1.014 1.021 NNE 10,1 72,2 1,5
06/2019 14,8 19,1 24,4 22,6 20,4 26,5 34,2 19,4 38 65 88 1.008 1.015 1.021 SE 10,9 70,3 1,0
05/2019 10,8 15,7 22,4 18,9 17,3 22,5 29,2 18,4 42 67 84 1.005 1.015 1.024 ESE 11,1 68,5 10,3
04/2019 7,9 11,8 14,8 14,7 13,9 18,5 26,7 18,8 37 69 97 945 1.014 1.027 OSO 10,3 66,6 291,8
03/2019 7,9 12,1 15,4 15,3 12,9 18,5 26,8 18,9 20 62 91 1.009 1.022 1.029 SSE 9,7 62,9 40,0
02/2019 7,2 10,4 13,4 13,5 11,9 16,6 23,1 15,9 37 66 88 995 1.024 1.032 ESE 8,7 68,5 0,0
01/2019 5,9 10,5 14,1 12,8 9,9 15,5 20,7 14,8 38 59 83 1.003 1.018 1.029 SSE 9,4 70,3 5,2
12/2018 8,2 12,4 16,2 14,8 12,5 17,8 22,7 14,5 42 67 92 1.008 1.024 1.029 SSE 6,8 62,9 29,6
11/2018 11,9 14,0 16,7 15,9 15,0 18,1 22,6 10,7 43 69 97 1.000 1.014 1.022 SSO 9,3 76,6 101,8
Tots els anys disponibles
2018 4,2 16,3 27,3 18,9 7,3 22,0 35,8 31,6 39 69 98 992 1.015 1.033 SE 10,6 81,4 556,8
2017 0,6 16,0 26,4 19,1 8,6 22,4 36,1 35,5 35 69 97 997 1.017 1.034 SE 3,4 83,0 685,3
Temperatura (°C)
Humitat relativa (%)
Velocitat del vent i ràfega màxima (km/h)
Direcció del vent (°)
Pressió (hPa)
Precipitació (mm)
Nota sobre les dades: s'avisa a l'usuari de la provisionalitat i no oficialitat d'aquestes dades
Logo AVAMET blanc
Web allotjada a Sollutia
Llicència de Creative CommonsLa web d'AVAMET i els seus continguts estan subjectes a una llicència de
Reconeixement - No Comercial - Compartir igual
Últimes estacions: Aielo de Malferit - Centre (Soci), Faura (Inforatge), Benifairó de les Valls (Inforatge), Xàbia - Les Valls (Soci), Xàbia - Alt de la Granadella (Soci), Villena - Sierra de Salinas (Soci), Sueca - Centre (Inforatge) - - -